createdAt,value
2018-01-17T00:05:24.166Z,983.77
2018-01-17T00:15:24.250Z,983.64
2018-01-17T00:25:24.214Z,983.46
2018-01-17T00:35:24.273Z,983.33
2018-01-17T00:45:24.254Z,983.08
2018-01-17T00:55:24.192Z,983.12
2018-01-17T01:05:24.288Z,983.18
2018-01-17T01:15:24.224Z,983.1
2018-01-17T01:25:24.287Z,983.21
2018-01-17T01:35:24.257Z,983.26
2018-01-17T01:45:24.312Z,983.49
2018-01-17T01:55:24.264Z,983.63
2018-01-17T02:05:24.321Z,983.69
2018-01-17T02:15:24.303Z,983.53
2018-01-17T02:25:24.353Z,983.47
2018-01-17T02:35:24.331Z,983.48
2018-01-17T02:45:24.413Z,983.5
2018-01-17T02:55:24.352Z,983.61
2018-01-17T03:05:24.304Z,983.79
2018-01-17T03:15:24.372Z,983.75
2018-01-17T03:25:24.314Z,983.82
2018-01-17T03:35:24.390Z,983.92
2018-01-17T03:45:24.337Z,984.01
2018-01-17T03:55:24.424Z,984.06
2018-01-17T04:05:24.373Z,984
2018-01-17T04:15:24.445Z,984.13
2018-01-17T04:25:24.408Z,984.22
2018-01-17T04:35:24.458Z,984.35
2018-01-17T04:45:24.414Z,984.4
2018-01-17T04:55:24.486Z,984.63
2018-01-17T05:05:24.451Z,984.79
2018-01-17T05:15:24.407Z,984.97
2018-01-17T05:25:24.456Z,985.15
2018-01-17T05:35:24.432Z,985.27
2018-01-17T05:45:24.491Z,985.34
2018-01-17T05:55:24.437Z,985.46
2018-01-17T06:05:24.539Z,985.65
2018-01-17T06:15:24.469Z,985.81
2018-01-17T06:25:24.454Z,985.97
2018-01-17T06:35:24.498Z,986.1
2018-01-17T06:45:24.471Z,986.39
2018-01-17T06:55:24.515Z,986.56
2018-01-17T07:05:24.476Z,986.83
2018-01-17T07:15:24.574Z,987.05
2018-01-17T07:25:24.515Z,987.38
2018-01-17T07:35:24.582Z,987.59
2018-01-17T07:45:24.535Z,987.86
2018-01-17T07:55:24.588Z,988.1
2018-01-17T08:05:24.543Z,988.36
2018-01-17T08:15:24.612Z,988.52
2018-01-17T08:25:24.591Z,988.77
2018-01-17T08:35:24.529Z,989.27
2018-01-17T08:45:24.614Z,989.18
2018-01-17T08:55:24.580Z,989.17
2018-01-17T09:05:24.636Z,989.47
2018-01-17T09:15:24.655Z,989.66
2018-01-17T09:25:24.651Z,989.72
2018-01-17T09:35:24.659Z,989.96
2018-01-17T09:45:24.685Z,990.14
2018-01-17T09:56:12.556Z,990.34
2018-01-17T10:06:12.525Z,990.46
2018-01-17T10:16:12.575Z,990.56
2018-01-17T10:26:12.530Z,990.7
2018-01-17T10:36:12.608Z,990.85
2018-01-17T10:46:12.483Z,990.87
2018-01-17T10:56:12.529Z,990.82
2018-01-17T11:06:12.598Z,991.06
2018-01-17T11:16:12.562Z,990.92
2018-01-17T11:26:12.531Z,991.03
2018-01-17T11:36:12.573Z,991.14
2018-01-17T11:46:12.539Z,990.91
2018-01-17T11:56:12.470Z,990.92
2018-01-17T12:06:12.492Z,990.93
2018-01-17T12:16:12.526Z,990.91
2018-01-17T12:26:12.569Z,990.99
2018-01-17T12:36:12.564Z,990.79
2018-01-17T12:46:12.519Z,990.68
2018-01-17T12:56:12.580Z,990.88
2018-01-17T13:06:12.609Z,991.41
2018-01-17T13:16:12.542Z,991.47
2018-01-17T13:26:12.515Z,991.68
2018-01-17T15:26:15.796Z,993.55
2018-01-17T15:36:16.686Z,993.88
2018-01-17T15:46:13.190Z,994.17
2018-01-17T15:56:13.539Z,994.37
2018-01-17T16:06:16.862Z,994.59
2018-01-17T16:16:12.521Z,994.84
2018-01-17T16:26:12.512Z,995.11
2018-01-17T16:36:12.439Z,995.14
2018-01-17T16:46:12.510Z,995.3
2018-01-17T16:56:12.473Z,995.6
2018-01-17T17:06:12.502Z,995.8
2018-01-17T17:16:12.492Z,995.94
2018-01-17T17:26:12.450Z,995.91
2018-01-17T17:36:12.412Z,996.23
2018-01-17T17:46:12.468Z,996.61
2018-01-17T17:56:12.425Z,996.31
2018-01-17T18:06:12.538Z,996.89
2018-01-17T18:16:12.469Z,996.57
2018-01-17T18:26:12.421Z,996.56
2018-01-17T18:36:12.492Z,996.55
2018-01-17T18:46:12.458Z,996.71
2018-01-17T18:56:12.415Z,996.82
2018-01-17T19:06:12.376Z,996.85
2018-01-17T19:16:16.801Z,996.84
2018-01-17T19:26:16.594Z,996.83
2018-01-17T20:16:14.419Z,997.06
2018-01-17T20:26:12.427Z,997.07
2018-01-17T20:36:17.001Z,997.05
2018-01-17T20:46:12.517Z,997.24
2018-01-17T20:56:16.086Z,997.2
2018-01-17T21:16:14.548Z,997.24
2018-01-17T21:26:15.885Z,997.44
2018-01-17T21:36:13.361Z,997.46
2018-01-17T21:46:16.504Z,997.57
2018-01-17T22:16:17.227Z,997.58
2018-01-17T22:26:16.052Z,997.58
2018-01-17T22:36:16.416Z,997.43
